sensor_id;sensor_type;location;lat;lon;timestamp;P1;durP1;ratioP1;P2;durP2;ratioP2
6097;SDS011;3077;50.922;6.584;2024-02-26T00:01:00;895.47;;;843.70;;
6097;SDS011;3077;50.922;6.584;2024-02-26T00:03:27;925.90;;;873.60;;
6097;SDS011;3077;50.922;6.584;2024-02-26T00:05:52;915.80;;;862.60;;
6097;SDS011;3077;50.922;6.584;2024-02-26T00:08:18;918.30;;;865.33;;
6097;SDS011;3077;50.922;6.584;2024-02-26T00:10:43;938.40;;;884.53;;
6097;SDS011;3077;50.922;6.584;2024-02-26T00:13:09;894.27;;;843.37;;
6097;SDS011;3077;50.922;6.584;2024-02-26T00:15:34;902.53;;;850.63;;
6097;SDS011;3077;50.922;6.584;2024-02-26T00:18:00;919.63;;;866.33;;
6097;SDS011;3077;50.922;6.584;2024-02-26T00:20:26;885.83;;;834.63;;
6097;SDS011;3077;50.922;6.584;2024-02-26T00:22:52;876.80;;;826.30;;
6097;SDS011;3077;50.922;6.584;2024-02-26T00:25:17;900.40;;;848.50;;
6097;SDS011;3077;50.922;6.584;2024-02-26T00:27:43;875.23;;;826.33;;
6097;SDS011;3077;50.922;6.584;2024-02-26T00:30:09;897.47;;;846.17;;
6097;SDS011;3077;50.922;6.584;2024-02-26T00:32:35;911.67;;;858.40;;
6097;SDS011;3077;50.922;6.584;2024-02-26T00:35:01;915.47;;;862.90;;
6097;SDS011;3077;50.922;6.584;2024-02-26T00:37:26;926.37;;;873.57;;
6097;SDS011;3077;50.922;6.584;2024-02-26T00:39:52;923.07;;;869.17;;
6097;SDS011;3077;50.922;6.584;2024-02-26T00:42:19;915.10;;;861.80;;
6097;SDS011;3077;50.922;6.584;2024-02-26T00:44:44;937.20;;;883.20;;
6097;SDS011;3077;50.922;6.584;2024-02-26T00:47:10;934.80;;;880.73;;
6097;SDS011;3077;50.922;6.584;2024-02-26T00:49:36;903.00;;;849.53;;
6097;SDS011;3077;50.922;6.584;2024-02-26T00:52:02;912.80;;;858.90;;
6097;SDS011;3077;50.922;6.584;2024-02-26T00:54:28;884.50;;;833.43;;
6097;SDS011;3077;50.922;6.584;2024-02-26T00:56:53;861.37;;;812.17;;
6097;SDS011;3077;50.922;6.584;2024-02-26T00:59:19;886.70;;;835.00;;
6097;SDS011;3077;50.922;6.584;2024-02-26T01:01:44;908.77;;;856.00;;
6097;SDS011;3077;50.922;6.584;2024-02-26T01:04:10;886.20;;;834.30;;
6097;SDS011;3077;50.922;6.584;2024-02-26T01:06:36;872.67;;;822.87;;
6097;SDS011;3077;50.922;6.584;2024-02-26T01:09:02;839.03;;;790.90;;
6097;SDS011;3077;50.922;6.584;2024-02-26T01:11:28;856.70;;;808.43;;
6097;SDS011;3077;50.922;6.584;2024-02-26T01:13:54;846.00;;;798.23;;
6097;SDS011;3077;50.922;6.584;2024-02-26T01:16:21;843.20;;;796.20;;
6097;SDS011;3077;50.922;6.584;2024-02-26T01:18:48;824.37;;;778.50;;
6097;SDS011;3077;50.922;6.584;2024-02-26T01:21:13;819.97;;;774.10;;
6097;SDS011;3077;50.922;6.584;2024-02-26T01:23:39;830.13;;;783.47;;
6097;SDS011;3077;50.922;6.584;2024-02-26T01:26:05;807.70;;;762.17;;
6097;SDS011;3077;50.922;6.584;2024-02-26T01:28:30;821.53;;;775.33;;
6097;SDS011;3077;50.922;6.584;2024-02-26T01:30:56;824.90;;;778.63;;
6097;SDS011;3077;50.922;6.584;2024-02-26T01:33:21;796.27;;;751.40;;
6097;SDS011;3077;50.922;6.584;2024-02-26T01:35:47;827.20;;;781.03;;
6097;SDS011;3077;50.922;6.584;2024-02-26T01:38:13;1596.10;;;915.07;;
6097;SDS011;3077;50.922;6.584;2024-02-26T01:40:39;1583.90;;;903.20;;
6097;SDS011;3077;50.922;6.584;2024-02-26T01:43:04;1999.90;;;999.90;;
6097;SDS011;3077;50.922;6.584;2024-02-26T01:45:30;1999.90;;;999.90;;
6097;SDS011;3077;50.922;6.584;2024-02-26T01:47:56;1999.90;;;999.90;;
6097;SDS011;3077;50.922;6.584;2024-02-26T01:50:22;1999.90;;;999.90;;
6097;SDS011;3077;50.922;6.584;2024-02-26T01:52:49;1999.90;;;999.90;;
6097;SDS011;3077;50.922;6.584;2024-02-26T01:55:17;1999.90;;;999.90;;
6097;SDS011;3077;50.922;6.584;2024-02-26T01:57:43;1999.90;;;999.90;;
6097;SDS011;3077;50.922;6.584;2024-02-26T02:00:10;1999.90;;;999.90;;
6097;SDS011;3077;50.922;6.584;2024-02-26T02:02:37;1999.90;;;999.90;;
6097;SDS011;3077;50.922;6.584;2024-02-26T02:05:05;1999.90;;;999.90;;
6097;SDS011;3077;50.922;6.584;2024-02-26T02:07:31;1999.90;;;999.90;;
6097;SDS011;3077;50.922;6.584;2024-02-26T02:09:57;1999.90;;;999.90;;
6097;SDS011;3077;50.922;6.584;2024-02-26T02:12:23;1999.90;;;999.90;;
6097;SDS011;3077;50.922;6.584;2024-02-26T02:14:49;1999.90;;;999.90;;
6097;SDS011;3077;50.922;6.584;2024-02-26T02:17:15;1999.90;;;999.90;;
6097;SDS011;3077;50.922;6.584;2024-02-26T02:19:41;1999.90;;;999.90;;
6097;SDS011;3077;50.922;6.584;2024-02-26T02:22:06;1999.90;;;999.90;;
6097;SDS011;3077;50.922;6.584;2024-02-26T02:24:32;1999.90;;;999.90;;
6097;SDS011;3077;50.922;6.584;2024-02-26T02:26:58;1999.90;;;999.90;;
6097;SDS011;3077;50.922;6.584;2024-02-26T02:29:24;1999.90;;;999.90;;
6097;SDS011;3077;50.922;6.584;2024-02-26T02:31:49;1999.90;;;999.90;;
6097;SDS011;3077;50.922;6.584;2024-02-26T02:34:15;1999.90;;;999.90;;
6097;SDS011;3077;50.922;6.584;2024-02-26T02:36:54;1999.90;;;999.90;;
6097;SDS011;3077;50.922;6.584;2024-02-26T02:39:20;1999.90;;;999.90;;
6097;SDS011;3077;50.922;6.584;2024-02-26T02:41:46;1999.90;;;999.90;;
6097;SDS011;3077;50.922;6.584;2024-02-26T02:44:12;1999.90;;;999.90;;
6097;SDS011;3077;50.922;6.584;2024-02-26T02:46:37;1999.90;;;999.90;;
6097;SDS011;3077;50.922;6.584;2024-02-26T02:49:04;1999.90;;;999.90;;
6097;SDS011;3077;50.922;6.584;2024-02-26T02:51:32;1999.90;;;999.90;;
6097;SDS011;3077;50.922;6.584;2024-02-26T02:53:58;1999.90;;;999.90;;
6097;SDS011;3077;50.922;6.584;2024-02-26T02:56:23;1999.90;;;999.90;;
6097;SDS011;3077;50.922;6.584;2024-02-26T02:58:49;1999.90;;;999.90;;
6097;SDS011;3077;50.922;6.584;2024-02-26T03:01:15;1999.90;;;999.90;;
6097;SDS011;3077;50.922;6.584;2024-02-26T03:03:40;1999.90;;;999.90;;
6097;SDS011;3077;50.922;6.584;2024-02-26T03:06:06;1999.90;;;999.90;;
6097;SDS011;3077;50.922;6.584;2024-02-26T03:08:31;1999.90;;;999.90;;
6097;SDS011;3077;50.922;6.584;2024-02-26T03:10:58;1999.90;;;999.90;;
6097;SDS011;3077;50.922;6.584;2024-02-26T03:13:24;1999.90;;;999.90;;
6097;SDS011;3077;50.922;6.584;2024-02-26T03:15:49;1999.90;;;999.90;;
6097;SDS011;3077;50.922;6.584;2024-02-26T03:18:15;1999.90;;;999.90;;
6097;SDS011;3077;50.922;6.584;2024-02-26T03:20:41;1999.90;;;999.90;;
6097;SDS011;3077;50.922;6.584;2024-02-26T03:23:06;1999.90;;;999.90;;
6097;SDS011;3077;50.922;6.584;2024-02-26T03:25:34;1999.90;;;999.90;;
6097;SDS011;3077;50.922;6.584;2024-02-26T03:28:00;1999.90;;;999.90;;
6097;SDS011;3077;50.922;6.584;2024-02-26T03:30:25;1999.90;;;999.90;;
6097;SDS011;3077;50.922;6.584;2024-02-26T03:32:51;1999.90;;;999.90;;
6097;SDS011;3077;50.922;6.584;2024-02-26T03:35:17;1999.90;;;999.90;;
6097;SDS011;3077;50.922;6.584;2024-02-26T03:37:42;1999.90;;;999.90;;
6097;SDS011;3077;50.922;6.584;2024-02-26T03:40:08;1999.90;;;999.90;;
6097;SDS011;3077;50.922;6.584;2024-02-26T03:42:34;1999.90;;;999.90;;
6097;SDS011;3077;50.922;6.584;2024-02-26T03:44:59;1999.90;;;999.90;;
6097;SDS011;3077;50.922;6.584;2024-02-26T03:47:25;1999.90;;;999.90;;
6097;SDS011;3077;50.922;6.584;2024-02-26T03:49:50;1999.90;;;999.90;;
6097;SDS011;3077;50.922;6.584;2024-02-26T03:52:16;1999.90;;;999.90;;
6097;SDS011;3077;50.922;6.584;2024-02-26T03:54:41;1999.90;;;999.90;;
6097;SDS011;3077;50.922;6.584;2024-02-26T03:57:07;1999.90;;;999.90;;
6097;SDS011;3077;50.922;6.584;2024-02-26T03:59:33;1999.90;;;999.90;;
6097;SDS011;3077;50.922;6.584;2024-02-26T04:01:58;1999.90;;;999.90;;
6097;SDS011;3077;50.922;6.584;2024-02-26T04:04:26;1999.90;;;999.90;;
6097;SDS011;3077;50.922;6.584;2024-02-26T04:06:52;1999.90;;;999.90;;
6097;SDS011;3077;50.922;6.584;2024-02-26T04:09:17;1999.90;;;999.90;;
6097;SDS011;3077;50.922;6.584;2024-02-26T04:11:43;1999.90;;;999.90;;
6097;SDS011;3077;50.922;6.584;2024-02-26T04:14:09;1999.90;;;999.90;;
6097;SDS011;3077;50.922;6.584;2024-02-26T04:16:36;1999.90;;;999.90;;
6097;SDS011;3077;50.922;6.584;2024-02-26T04:19:02;1999.90;;;999.90;;
6097;SDS011;3077;50.922;6.584;2024-02-26T04:21:27;1999.90;;;999.90;;
6097;SDS011;3077;50.922;6.584;2024-02-26T04:23:53;1999.90;;;999.90;;
6097;SDS011;3077;50.922;6.584;2024-02-26T04:26:21;1999.90;;;999.90;;
6097;SDS011;3077;50.922;6.584;2024-02-26T04:28:47;1999.90;;;999.90;;
6097;SDS011;3077;50.922;6.584;2024-02-26T04:31:13;1999.90;;;999.90;;
6097;SDS011;3077;50.922;6.584;2024-02-26T04:33:38;1999.90;;;999.90;;
6097;SDS011;3077;50.922;6.584;2024-02-26T04:36:04;1999.90;;;999.90;;
6097;SDS011;3077;50.922;6.584;2024-02-26T04:38:29;1999.90;;;999.90;;
6097;SDS011;3077;50.922;6.584;2024-02-26T04:40:55;1999.90;;;999.90;;
6097;SDS011;3077;50.922;6.584;2024-02-26T04:43:21;1999.90;;;999.90;;
6097;SDS011;3077;50.922;6.584;2024-02-26T04:45:46;1999.90;;;999.90;;
6097;SDS011;3077;50.922;6.584;2024-02-26T04:48:13;1999.90;;;999.90;;
6097;SDS011;3077;50.922;6.584;2024-02-26T04:50:38;1999.90;;;999.90;;
6097;SDS011;3077;50.922;6.584;2024-02-26T04:53:04;1999.90;;;999.90;;
6097;SDS011;3077;50.922;6.584;2024-02-26T04:55:29;1999.90;;;999.90;;
6097;SDS011;3077;50.922;6.584;2024-02-26T04:57:55;1999.90;;;999.90;;
6097;SDS011;3077;50.922;6.584;2024-02-26T05:00:20;1999.90;;;999.90;;
6097;SDS011;3077;50.922;6.584;2024-02-26T05:02:46;1999.90;;;999.90;;
6097;SDS011;3077;50.922;6.584;2024-02-26T05:05:11;1999.90;;;999.90;;
6097;SDS011;3077;50.922;6.584;2024-02-26T05:07:41;1999.90;;;999.90;;
6097;SDS011;3077;50.922;6.584;2024-02-26T05:10:10;1999.90;;;999.90;;
6097;SDS011;3077;50.922;6.584;2024-02-26T05:12:36;1999.90;;;999.90;;
6097;SDS011;3077;50.922;6.584;2024-02-26T05:15:02;1999.90;;;999.90;;
6097;SDS011;3077;50.922;6.584;2024-02-26T05:17:28;1999.90;;;999.90;;
6097;SDS011;3077;50.922;6.584;2024-02-26T05:19:53;1999.90;;;999.90;;
6097;SDS011;3077;50.922;6.584;2024-02-26T05:22:19;1999.90;;;999.90;;
6097;SDS011;3077;50.922;6.584;2024-02-26T05:24:45;1999.90;;;999.90;;
6097;SDS011;3077;50.922;6.584;2024-02-26T05:27:10;1999.90;;;999.90;;
6097;SDS011;3077;50.922;6.584;2024-02-26T05:29:37;1999.90;;;999.90;;
6097;SDS011;3077;50.922;6.584;2024-02-26T05:32:03;1999.90;;;999.90;;
6097;SDS011;3077;50.922;6.584;2024-02-26T05:34:29;1999.90;;;999.90;;
6097;SDS011;3077;50.922;6.584;2024-02-26T05:36:55;1999.90;;;999.90;;
6097;SDS011;3077;50.922;6.584;2024-02-26T05:39:21;1999.90;;;999.90;;
6097;SDS011;3077;50.922;6.584;2024-02-26T05:41:46;1999.90;;;999.90;;
6097;SDS011;3077;50.922;6.584;2024-02-26T05:44:12;1999.90;;;999.90;;
6097;SDS011;3077;50.922;6.584;2024-02-26T05:46:38;1999.90;;;999.90;;
6097;SDS011;3077;50.922;6.584;2024-02-26T05:49:03;1999.90;;;999.90;;
6097;SDS011;3077;50.922;6.584;2024-02-26T05:51:29;1999.90;;;999.90;;
6097;SDS011;3077;50.922;6.584;2024-02-26T05:53:55;1999.90;;;999.90;;
6097;SDS011;3077;50.922;6.584;2024-02-26T05:56:21;1999.90;;;999.90;;
6097;SDS011;3077;50.922;6.584;2024-02-26T05:58:47;1999.90;;;999.90;;
6097;SDS011;3077;50.922;6.584;2024-02-26T06:01:13;1999.90;;;999.90;;
6097;SDS011;3077;50.922;6.584;2024-02-26T06:03:40;1999.90;;;999.90;;
6097;SDS011;3077;50.922;6.584;2024-02-26T06:06:05;1999.90;;;999.90;;
6097;SDS011;3077;50.922;6.584;2024-02-26T06:08:31;1999.90;;;999.90;;
6097;SDS011;3077;50.922;6.584;2024-02-26T06:10:56;1999.90;;;999.90;;
6097;SDS011;3077;50.922;6.584;2024-02-26T06:13:22;1999.90;;;999.90;;
6097;SDS011;3077;50.922;6.584;2024-02-26T06:15:48;1999.90;;;999.90;;
6097;SDS011;3077;50.922;6.584;2024-02-26T06:18:13;1999.90;;;999.90;;
6097;SDS011;3077;50.922;6.584;2024-02-26T06:20:39;1999.90;;;999.90;;
6097;SDS011;3077;50.922;6.584;2024-02-26T06:23:04;1999.90;;;999.90;;
6097;SDS011;3077;50.922;6.584;2024-02-26T06:25:30;1999.90;;;999.90;;
6097;SDS011;3077;50.922;6.584;2024-02-26T06:27:56;1999.90;;;999.90;;
6097;SDS011;3077;50.922;6.584;2024-02-26T06:30:22;1999.90;;;999.90;;
6097;SDS011;3077;50.922;6.584;2024-02-26T06:32:47;1999.90;;;999.90;;
6097;SDS011;3077;50.922;6.584;2024-02-26T06:35:13;1999.90;;;999.90;;
6097;SDS011;3077;50.922;6.584;2024-02-26T06:37:38;1999.90;;;999.90;;
6097;SDS011;3077;50.922;6.584;2024-02-26T06:40:04;1999.90;;;999.90;;
6097;SDS011;3077;50.922;6.584;2024-02-26T06:42:34;1999.90;;;999.90;;
6097;SDS011;3077;50.922;6.584;2024-02-26T06:45:00;1999.90;;;999.90;;
6097;SDS011;3077;50.922;6.584;2024-02-26T06:47:26;1999.90;;;999.90;;
6097;SDS011;3077;50.922;6.584;2024-02-26T06:49:52;1999.90;;;999.90;;
6097;SDS011;3077;50.922;6.584;2024-02-26T06:52:17;1999.90;;;999.90;;
6097;SDS011;3077;50.922;6.584;2024-02-26T06:54:43;1999.90;;;999.90;;
6097;SDS011;3077;50.922;6.584;2024-02-26T06:57:09;1999.90;;;999.90;;
6097;SDS011;3077;50.922;6.584;2024-02-26T06:59:35;1999.90;;;999.90;;
6097;SDS011;3077;50.922;6.584;2024-02-26T07:02:01;620.40;;;587.33;;
6097;SDS011;3077;50.922;6.584;2024-02-26T07:04:26;1999.90;;;999.90;;
6097;SDS011;3077;50.922;6.584;2024-02-26T07:06:52;1999.90;;;999.90;;
6097;SDS011;3077;50.922;6.584;2024-02-26T07:09:18;1999.90;;;999.90;;
6097;SDS011;3077;50.922;6.584;2024-02-26T07:11:43;1532.67;;;855.80;;
6097;SDS011;3077;50.922;6.584;2024-02-26T07:14:09;578.20;;;548.97;;
6097;SDS011;3077;50.922;6.584;2024-02-26T07:16:35;1140.77;;;780.43;;
6097;SDS011;3077;50.922;6.584;2024-02-26T07:19:01;1999.90;;;999.90;;
6097;SDS011;3077;50.922;6.584;2024-02-26T07:21:28;556.87;;;528.10;;
6097;SDS011;3077;50.922;6.584;2024-02-26T07:23:54;639.53;;;606.23;;
6097;SDS011;3077;50.922;6.584;2024-02-26T07:26:19;698.43;;;657.83;;
6097;SDS011;3077;50.922;6.584;2024-02-26T07:28:45;645.47;;;610.60;;
6097;SDS011;3077;50.922;6.584;2024-02-26T07:31:11;638.03;;;605.00;;
6097;SDS011;3077;50.922;6.584;2024-02-26T07:33:37;607.30;;;575.60;;
6097;SDS011;3077;50.922;6.584;2024-02-26T07:36:03;667.13;;;631.10;;
6097;SDS011;3077;50.922;6.584;2024-02-26T07:38:29;669.47;;;632.50;;
6097;SDS011;3077;50.922;6.584;2024-02-26T07:40:55;870.97;;;819.23;;
6097;SDS011;3077;50.922;6.584;2024-02-26T07:43:21;688.43;;;651.70;;
6097;SDS011;3077;50.922;6.584;2024-02-26T07:45:47;858.33;;;804.63;;
6097;SDS011;3077;50.922;6.584;2024-02-26T07:48:13;839.30;;;788.77;;
6097;SDS011;3077;50.922;6.584;2024-02-26T07:50:38;838.23;;;786.90;;
6097;SDS011;3077;50.922;6.584;2024-02-26T07:53:05;729.53;;;691.00;;
6097;SDS011;3077;50.922;6.584;2024-02-26T07:55:31;771.90;;;729.00;;
6097;SDS011;3077;50.922;6.584;2024-02-26T07:57:56;915.53;;;860.33;;
6097;SDS011;3077;50.922;6.584;2024-02-26T08:00:22;944.03;;;876.37;;
6097;SDS011;3077;50.922;6.584;2024-02-26T08:02:48;700.37;;;663.13;;
6097;SDS011;3077;50.922;6.584;2024-02-26T08:05:13;817.57;;;770.97;;
6097;SDS011;3077;50.922;6.584;2024-02-26T08:07:39;735.93;;;696.23;;
6097;SDS011;3077;50.922;6.584;2024-02-26T08:10:05;746.60;;;706.00;;
6097;SDS011;3077;50.922;6.584;2024-02-26T08:12:31;682.93;;;646.67;;
6097;SDS011;3077;50.922;6.584;2024-02-26T08:14:57;929.33;;;868.87;;
6097;SDS011;3077;50.922;6.584;2024-02-26T08:17:23;844.10;;;795.60;;
6097;SDS011;3077;50.922;6.584;2024-02-26T08:19:49;785.27;;;742.30;;
6097;SDS011;3077;50.922;6.584;2024-02-26T08:22:14;708.43;;;670.20;;
6097;SDS011;3077;50.922;6.584;2024-02-26T08:24:43;721.83;;;683.20;;
6097;SDS011;3077;50.922;6.584;2024-02-26T08:27:08;732.77;;;692.80;;
6097;SDS011;3077;50.922;6.584;2024-02-26T08:29:34;975.67;;;905.00;;
6097;SDS011;3077;50.922;6.584;2024-02-26T08:32:00;838.70;;;788.30;;
6097;SDS011;3077;50.922;6.584;2024-02-26T08:34:26;740.07;;;701.17;;
6097;SDS011;3077;50.922;6.584;2024-02-26T08:36:52;859.97;;;810.23;;
6097;SDS011;3077;50.922;6.584;2024-02-26T08:39:19;741.73;;;701.73;;
6097;SDS011;3077;50.922;6.584;2024-02-26T08:41:45;955.30;;;894.10;;
6097;SDS011;3077;50.922;6.584;2024-02-26T08:44:11;737.23;;;696.73;;
6097;SDS011;3077;50.922;6.584;2024-02-26T08:46:37;1008.63;;;944.10;;
6097;SDS011;3077;50.922;6.584;2024-02-26T08:49:02;793.30;;;749.23;;
6097;SDS011;3077;50.922;6.584;2024-02-26T08:51:29;712.00;;;674.30;;
6097;SDS011;3077;50.922;6.584;2024-02-26T08:53:54;742.50;;;702.33;;
6097;SDS011;3077;50.922;6.584;2024-02-26T08:56:20;777.47;;;734.10;;
6097;SDS011;3077;50.922;6.584;2024-02-26T08:58:46;749.57;;;707.80;;
6097;SDS011;3077;50.922;6.584;2024-02-26T09:01:16;787.00;;;742.93;;
6097;SDS011;3077;50.922;6.584;2024-02-26T09:03:42;748.07;;;707.67;;
6097;SDS011;3077;50.922;6.584;2024-02-26T09:06:08;732.90;;;692.17;;
6097;SDS011;3077;50.922;6.584;2024-02-26T09:08:34;770.70;;;729.17;;
6097;SDS011;3077;50.922;6.584;2024-02-26T09:11:01;811.20;;;765.60;;
6097;SDS011;3077;50.922;6.584;2024-02-26T09:13:28;748.27;;;705.83;;
6097;SDS011;3077;50.922;6.584;2024-02-26T09:15:53;833.40;;;785.07;;
6097;SDS011;3077;50.922;6.584;2024-02-26T09:18:19;903.87;;;849.77;;
6097;SDS011;3077;50.922;6.584;2024-02-26T09:20:45;848.27;;;799.27;;
6097;SDS011;3077;50.922;6.584;2024-02-26T09:23:11;847.57;;;798.83;;
6097;SDS011;3077;50.922;6.584;2024-02-26T09:25:36;807.67;;;761.83;;
6097;SDS011;3077;50.922;6.584;2024-02-26T09:28:02;794.83;;;749.53;;
6097;SDS011;3077;50.922;6.584;2024-02-26T09:30:28;839.60;;;791.20;;
6097;SDS011;3077;50.922;6.584;2024-02-26T09:32:54;1105.67;;;999.90;;
6097;SDS011;3077;50.922;6.584;2024-02-26T09:35:19;971.97;;;909.13;;
6097;SDS011;3077;50.922;6.584;2024-02-26T09:37:46;1153.50;;;999.90;;
6097;SDS011;3077;50.922;6.584;2024-02-26T09:40:13;931.57;;;873.10;;
6097;SDS011;3077;50.922;6.584;2024-02-26T09:42:44;878.87;;;826.83;;
6097;SDS011;3077;50.922;6.584;2024-02-26T09:45:21;1091.77;;;999.90;;
6097;SDS011;3077;50.922;6.584;2024-02-26T09:47:49;898.87;;;845.60;;
6097;SDS011;3077;50.922;6.584;2024-02-26T09:50:16;915.30;;;860.57;;
6097;SDS011;3077;50.922;6.584;2024-02-26T09:52:43;932.43;;;877.60;;
6097;SDS011;3077;50.922;6.584;2024-02-26T09:55:08;938.80;;;882.57;;
6097;SDS011;3077;50.922;6.584;2024-02-26T09:57:45;1017.97;;;954.53;;
6097;SDS011;3077;50.922;6.584;2024-02-26T10:00:14;1033.63;;;969.07;;
6097;SDS011;3077;50.922;6.584;2024-02-26T10:02:44;951.77;;;894.53;;
6097;SDS011;3077;50.922;6.584;2024-02-26T10:05:12;922.67;;;868.27;;
6097;SDS011;3077;50.922;6.584;2024-02-26T10:07:42;1030.30;;;963.70;;
6097;SDS011;3077;50.922;6.584;2024-02-26T10:10:09;1162.20;;;999.90;;
6097;SDS011;3077;50.922;6.584;2024-02-26T10:12:35;938.17;;;882.27;;
6097;SDS011;3077;50.922;6.584;2024-02-26T10:15:01;1100.30;;;999.90;;
6097;SDS011;3077;50.922;6.584;2024-02-26T10:17:26;954.50;;;898.13;;
6097;SDS011;3077;50.922;6.584;2024-02-26T10:19:53;959.17;;;901.17;;
6097;SDS011;3077;50.922;6.584;2024-02-26T10:22:21;948.73;;;891.93;;
6097;SDS011;3077;50.922;6.584;2024-02-26T10:24:47;948.07;;;890.20;;
6097;SDS011;3077;50.922;6.584;2024-02-26T10:27:13;1040.57;;;973.23;;
6097;SDS011;3077;50.922;6.584;2024-02-26T10:29:40;988.20;;;927.03;;
6097;SDS011;3077;50.922;6.584;2024-02-26T10:32:08;1079.37;;;999.90;;
6097;SDS011;3077;50.922;6.584;2024-02-26T10:34:35;947.00;;;889.30;;
6097;SDS011;3077;50.922;6.584;2024-02-26T10:37:03;987.73;;;926.77;;
6097;SDS011;3077;50.922;6.584;2024-02-26T10:39:29;992.13;;;930.97;;
6097;SDS011;3077;50.922;6.584;2024-02-26T10:41:55;1009.50;;;946.57;;
6097;SDS011;3077;50.922;6.584;2024-02-26T10:44:20;985.93;;;925.03;;
6097;SDS011;3077;50.922;6.584;2024-02-26T10:46:47;989.73;;;928.03;;
6097;SDS011;3077;50.922;6.584;2024-02-26T10:49:16;1121.13;;;999.90;;
6097;SDS011;3077;50.922;6.584;2024-02-26T10:51:45;1041.07;;;974.53;;
6097;SDS011;3077;50.922;6.584;2024-02-26T10:54:15;982.70;;;921.50;;
6097;SDS011;3077;50.922;6.584;2024-02-26T10:56:41;1038.63;;;973.43;;
6097;SDS011;3077;50.922;6.584;2024-02-26T10:59:09;1046.33;;;976.30;;
6097;SDS011;3077;50.922;6.584;2024-02-26T11:01:35;1058.90;;;990.80;;
6097;SDS011;3077;50.922;6.584;2024-02-26T11:04:06;1044.73;;;977.80;;
6097;SDS011;3077;50.922;6.584;2024-02-26T11:06:34;1123.37;;;999.90;;
6097;SDS011;3077;50.922;6.584;2024-02-26T11:09:01;1153.93;;;999.90;;
6097;SDS011;3077;50.922;6.584;2024-02-26T11:11:27;1075.23;;;999.90;;
6097;SDS011;3077;50.922;6.584;2024-02-26T11:13:54;1072.07;;;995.27;;
6097;SDS011;3077;50.922;6.584;2024-02-26T11:16:21;1048.20;;;980.23;;
6097;SDS011;3077;50.922;6.584;2024-02-26T11:18:48;1140.33;;;999.90;;
6097;SDS011;3077;50.922;6.584;2024-02-26T11:21:17;1062.07;;;995.10;;
6097;SDS011;3077;50.922;6.584;2024-02-26T11:23:52;1035.30;;;970.87;;
6097;SDS011;3077;50.922;6.584;2024-02-26T11:26:19;1076.20;;;999.90;;
6097;SDS011;3077;50.922;6.584;2024-02-26T11:28:46;1027.67;;;963.50;;
6097;SDS011;3077;50.922;6.584;2024-02-26T11:31:13;1140.70;;;999.90;;
6097;SDS011;3077;50.922;6.584;2024-02-26T11:33:39;1046.07;;;978.40;;
6097;SDS011;3077;50.922;6.584;2024-02-26T11:36:11;1030.93;;;964.53;;
6097;SDS011;3077;50.922;6.584;2024-02-26T11:38:37;1114.00;;;999.90;;
6097;SDS011;3077;50.922;6.584;2024-02-26T11:41:04;950.10;;;892.53;;
6097;SDS011;3077;50.922;6.584;2024-02-26T11:46:25;1093.60;;;999.90;;
6097;SDS011;3077;50.922;6.584;2024-02-26T11:48:59;1130.17;;;999.90;;
6097;SDS011;3077;50.922;6.584;2024-02-26T11:51:26;961.10;;;903.03;;
6097;SDS011;3077;50.922;6.584;2024-02-26T11:53:53;991.67;;;930.70;;
6097;SDS011;3077;50.922;6.584;2024-02-26T11:58:48;940.73;;;884.47;;
6097;SDS011;3077;50.922;6.584;2024-02-26T12:04:06;974.03;;;915.30;;
6097;SDS011;3077;50.922;6.584;2024-02-26T12:06:58;933.17;;;879.87;;
6097;SDS011;3077;50.922;6.584;2024-02-26T12:09:30;934.10;;;878.20;;
6097;SDS011;3077;50.922;6.584;2024-02-26T12:14:28;900.00;;;847.53;;
6097;SDS011;3077;50.922;6.584;2024-02-26T12:16:55;919.80;;;865.60;;
6097;SDS011;3077;50.922;6.584;2024-02-26T12:19:22;908.07;;;853.93;;
6097;SDS011;3077;50.922;6.584;2024-02-26T12:21:51;907.20;;;853.97;;
6097;SDS011;3077;50.922;6.584;2024-02-26T12:24:18;937.93;;;881.87;;
6097;SDS011;3077;50.922;6.584;2024-02-26T12:26:45;943.07;;;887.80;;
6097;SDS011;3077;50.922;6.584;2024-02-26T12:29:10;952.77;;;896.47;;
6097;SDS011;3077;50.922;6.584;2024-02-26T12:31:36;916.70;;;862.07;;
6097;SDS011;3077;50.922;6.584;2024-02-26T12:34:04;938.00;;;883.27;;
6097;SDS011;3077;50.922;6.584;2024-02-26T12:36:31;914.57;;;860.73;;
6097;SDS011;3077;50.922;6.584;2024-02-26T12:38:57;1050.13;;;982.53;;
6097;SDS011;3077;50.922;6.584;2024-02-26T12:41:23;938.33;;;880.30;;
6097;SDS011;3077;50.922;6.584;2024-02-26T12:43:49;907.30;;;852.93;;
6097;SDS011;3077;50.922;6.584;2024-02-26T12:46:14;929.67;;;874.33;;
6097;SDS011;3077;50.922;6.584;2024-02-26T12:48:44;1122.17;;;999.90;;
6097;SDS011;3077;50.922;6.584;2024-02-26T12:51:10;1121.13;;;999.90;;
6097;SDS011;3077;50.922;6.584;2024-02-26T12:53:40;994.83;;;930.10;;
6097;SDS011;3077;50.922;6.584;2024-02-26T12:56:09;974.77;;;916.03;;
6097;SDS011;3077;50.922;6.584;2024-02-26T12:58:36;967.27;;;909.13;;
6097;SDS011;3077;50.922;6.584;2024-02-26T13:01:04;1079.63;;;995.60;;
6097;SDS011;3077;50.922;6.584;2024-02-26T13:03:31;972.97;;;915.20;;
6097;SDS011;3077;50.922;6.584;2024-02-26T13:05:59;971.10;;;911.13;;
6097;SDS011;3077;50.922;6.584;2024-02-26T13:08:25;922.67;;;867.43;;
6097;SDS011;3077;50.922;6.584;2024-02-26T13:10:51;1031.83;;;966.07;;
6097;SDS011;3077;50.922;6.584;2024-02-26T13:13:18;1066.67;;;998.07;;
6097;SDS011;3077;50.922;6.584;2024-02-26T13:15:45;986.27;;;926.23;;
6097;SDS011;3077;50.922;6.584;2024-02-26T13:18:11;1202.87;;;999.90;;
6097;SDS011;3077;50.922;6.584;2024-02-26T13:20:40;969.80;;;910.40;;
6097;SDS011;3077;50.922;6.584;2024-02-26T13:23:07;974.87;;;916.77;;
6097;SDS011;3077;50.922;6.584;2024-02-26T13:25:35;952.00;;;894.73;;
6097;SDS011;3077;50.922;6.584;2024-02-26T13:28:24;943.40;;;885.47;;
6097;SDS011;3077;50.922;6.584;2024-02-26T13:30:52;1056.60;;;985.00;;
6097;SDS011;3077;50.922;6.584;2024-02-26T13:33:21;956.63;;;898.17;;
6097;SDS011;3077;50.922;6.584;2024-02-26T13:35:47;1252.93;;;999.90;;
6097;SDS011;3077;50.922;6.584;2024-02-26T13:38:13;972.00;;;913.30;;
6097;SDS011;3077;50.922;6.584;2024-02-26T13:40:39;1149.33;;;999.90;;
6097;SDS011;3077;50.922;6.584;2024-02-26T13:43:05;978.80;;;917.10;;
6097;SDS011;3077;50.922;6.584;2024-02-26T13:45:33;999.80;;;936.83;;
6097;SDS011;3077;50.922;6.584;2024-02-26T13:48:01;980.90;;;921.23;;
6097;SDS011;3077;50.922;6.584;2024-02-26T13:50:28;981.50;;;921.53;;
6097;SDS011;3077;50.922;6.584;2024-02-26T13:52:54;1039.00;;;972.03;;
6097;SDS011;3077;50.922;6.584;2024-02-26T13:55:21;1030.20;;;966.13;;
6097;SDS011;3077;50.922;6.584;2024-02-26T13:57:55;944.50;;;886.73;;
6097;SDS011;3077;50.922;6.584;2024-02-26T14:00:21;967.90;;;906.70;;
6097;SDS011;3077;50.922;6.584;2024-02-26T14:02:47;961.60;;;903.63;;
6097;SDS011;3077;50.922;6.584;2024-02-26T14:05:13;965.97;;;905.90;;
6097;SDS011;3077;50.922;6.584;2024-02-26T14:07:39;953.07;;;895.77;;
6097;SDS011;3077;50.922;6.584;2024-02-26T14:10:05;1114.67;;;999.90;;
6097;SDS011;3077;50.922;6.584;2024-02-26T14:12:31;1001.20;;;940.53;;
6097;SDS011;3077;50.922;6.584;2024-02-26T14:14:57;1172.70;;;999.90;;
6097;SDS011;3077;50.922;6.584;2024-02-26T14:17:25;930.50;;;873.40;;
6097;SDS011;3077;50.922;6.584;2024-02-26T14:19:51;1179.40;;;999.90;;